sensor_id;sensor_type;location;lat;lon;timestamp;P1;durP1;ratioP1;P2;durP2;ratioP2
757;SDS011;363;48.764;9.172;2022-12-18T00:01:04;40.15;;;25.45;;
757;SDS011;363;48.764;9.172;2022-12-18T00:03:38;43.10;;;25.05;;
757;SDS011;363;48.764;9.172;2022-12-18T00:06:04;46.10;;;26.10;;
757;SDS011;363;48.764;9.172;2022-12-18T00:08:29;37.60;;;24.80;;
757;SDS011;363;48.764;9.172;2022-12-18T00:10:55;42.27;;;25.90;;
757;SDS011;363;48.764;9.172;2022-12-18T00:13:27;37.03;;;23.88;;
757;SDS011;363;48.764;9.172;2022-12-18T00:15:53;38.90;;;23.57;;
757;SDS011;363;48.764;9.172;2022-12-18T00:18:19;40.87;;;26.17;;
757;SDS011;363;48.764;9.172;2022-12-18T00:20:44;39.40;;;24.00;;
757;SDS011;363;48.764;9.172;2022-12-18T00:23:10;40.27;;;25.00;;
757;SDS011;363;48.764;9.172;2022-12-18T00:25:36;38.13;;;24.83;;
757;SDS011;363;48.764;9.172;2022-12-18T00:28:02;48.13;;;25.02;;
757;SDS011;363;48.764;9.172;2022-12-18T00:30:28;44.63;;;25.25;;
757;SDS011;363;48.764;9.172;2022-12-18T00:32:54;39.77;;;24.33;;
757;SDS011;363;48.764;9.172;2022-12-18T00:35:20;39.42;;;23.40;;
757;SDS011;363;48.764;9.172;2022-12-18T00:37:46;40.65;;;23.05;;
757;SDS011;363;48.764;9.172;2022-12-18T00:40:11;41.83;;;23.67;;
757;SDS011;363;48.764;9.172;2022-12-18T00:42:37;40.03;;;25.03;;
757;SDS011;363;48.764;9.172;2022-12-18T00:45:22;40.17;;;25.45;;
757;SDS011;363;48.764;9.172;2022-12-18T00:47:49;38.28;;;22.60;;
757;SDS011;363;48.764;9.172;2022-12-18T00:50:14;42.40;;;24.47;;
757;SDS011;363;48.764;9.172;2022-12-18T00:52:40;40.17;;;23.17;;
757;SDS011;363;48.764;9.172;2022-12-18T00:55:06;38.50;;;22.83;;
757;SDS011;363;48.764;9.172;2022-12-18T00:57:33;41.40;;;24.90;;
757;SDS011;363;48.764;9.172;2022-12-18T00:59:58;42.50;;;25.67;;
757;SDS011;363;48.764;9.172;2022-12-18T01:02:24;39.07;;;25.00;;
757;SDS011;363;48.764;9.172;2022-12-18T01:04:50;35.57;;;22.10;;
757;SDS011;363;48.764;9.172;2022-12-18T01:07:15;42.23;;;23.50;;
757;SDS011;363;48.764;9.172;2022-12-18T01:09:41;39.47;;;23.97;;
757;SDS011;363;48.764;9.172;2022-12-18T01:12:06;41.10;;;25.47;;
757;SDS011;363;48.764;9.172;2022-12-18T01:14:32;46.97;;;26.77;;
757;SDS011;363;48.764;9.172;2022-12-18T01:16:57;43.20;;;24.43;;
757;SDS011;363;48.764;9.172;2022-12-18T01:19:23;39.77;;;22.97;;
757;SDS011;363;48.764;9.172;2022-12-18T01:21:49;41.53;;;24.70;;
757;SDS011;363;48.764;9.172;2022-12-18T01:24:14;40.00;;;23.97;;
757;SDS011;363;48.764;9.172;2022-12-18T01:26:40;40.10;;;25.60;;
757;SDS011;363;48.764;9.172;2022-12-18T01:29:06;37.93;;;22.53;;
757;SDS011;363;48.764;9.172;2022-12-18T01:31:32;39.37;;;23.47;;
757;SDS011;363;48.764;9.172;2022-12-18T01:34:02;44.17;;;24.10;;
757;SDS011;363;48.764;9.172;2022-12-18T01:36:30;38.90;;;22.38;;
757;SDS011;363;48.764;9.172;2022-12-18T01:38:59;40.50;;;23.70;;
757;SDS011;363;48.764;9.172;2022-12-18T01:41:27;39.20;;;21.40;;
757;SDS011;363;48.764;9.172;2022-12-18T01:47:18;41.45;;;23.92;;
757;SDS011;363;48.764;9.172;2022-12-18T01:49:48;36.05;;;23.58;;
757;SDS011;363;48.764;9.172;2022-12-18T01:52:14;46.90;;;23.30;;
757;SDS011;363;48.764;9.172;2022-12-18T01:54:40;36.97;;;21.95;;
757;SDS011;363;48.764;9.172;2022-12-18T01:57:06;37.93;;;23.97;;
757;SDS011;363;48.764;9.172;2022-12-18T01:59:32;42.15;;;24.73;;
757;SDS011;363;48.764;9.172;2022-12-18T02:02:00;43.10;;;23.20;;
757;SDS011;363;48.764;9.172;2022-12-18T02:04:27;35.72;;;23.20;;
757;SDS011;363;48.764;9.172;2022-12-18T02:09:37;41.65;;;22.88;;
757;SDS011;363;48.764;9.172;2022-12-18T02:12:16;43.08;;;24.80;;
757;SDS011;363;48.764;9.172;2022-12-18T02:15:00;35.60;;;21.52;;
757;SDS011;363;48.764;9.172;2022-12-18T02:17:39;39.72;;;22.20;;
757;SDS011;363;48.764;9.172;2022-12-18T02:20:20;40.28;;;22.20;;
757;SDS011;363;48.764;9.172;2022-12-18T02:25:27;32.17;;;21.20;;
757;SDS011;363;48.764;9.172;2022-12-18T02:28:16;38.17;;;23.63;;
757;SDS011;363;48.764;9.172;2022-12-18T02:30:48;38.00;;;23.42;;
757;SDS011;363;48.764;9.172;2022-12-18T02:33:15;35.67;;;21.88;;
757;SDS011;363;48.764;9.172;2022-12-18T02:35:42;39.80;;;22.08;;
757;SDS011;363;48.764;9.172;2022-12-18T02:38:10;34.55;;;21.33;;
757;SDS011;363;48.764;9.172;2022-12-18T02:40:37;34.28;;;20.33;;
757;SDS011;363;48.764;9.172;2022-12-18T02:43:07;34.38;;;21.88;;
757;SDS011;363;48.764;9.172;2022-12-18T02:45:48;34.90;;;20.52;;
757;SDS011;363;48.764;9.172;2022-12-18T02:48:17;38.65;;;23.20;;
757;SDS011;363;48.764;9.172;2022-12-18T02:50:47;36.10;;;20.35;;
757;SDS011;363;48.764;9.172;2022-12-18T02:53:27;33.20;;;20.92;;
757;SDS011;363;48.764;9.172;2022-12-18T02:56:04;32.92;;;19.15;;
757;SDS011;363;48.764;9.172;2022-12-18T02:59:17;40.22;;;21.77;;
757;SDS011;363;48.764;9.172;2022-12-18T03:04:12;37.22;;;20.90;;
757;SDS011;363;48.764;9.172;2022-12-18T03:06:50;40.17;;;22.45;;
757;SDS011;363;48.764;9.172;2022-12-18T03:09:21;33.85;;;20.05;;
757;SDS011;363;48.764;9.172;2022-12-18T03:11:54;36.92;;;20.92;;
757;SDS011;363;48.764;9.172;2022-12-18T03:14:45;38.03;;;19.73;;
757;SDS011;363;48.764;9.172;2022-12-18T03:17:17;36.42;;;20.55;;
757;SDS011;363;48.764;9.172;2022-12-18T03:19:48;37.33;;;21.33;;
757;SDS011;363;48.764;9.172;2022-12-18T03:22:16;37.63;;;20.40;;
757;SDS011;363;48.764;9.172;2022-12-18T03:24:42;35.90;;;20.65;;
757;SDS011;363;48.764;9.172;2022-12-18T03:27:10;35.92;;;22.20;;
757;SDS011;363;48.764;9.172;2022-12-18T03:29:40;32.63;;;19.67;;
757;SDS011;363;48.764;9.172;2022-12-18T03:32:18;33.17;;;19.00;;
757;SDS011;363;48.764;9.172;2022-12-18T03:34:51;32.28;;;19.25;;
757;SDS011;363;48.764;9.172;2022-12-18T03:37:22;33.83;;;20.58;;
757;SDS011;363;48.764;9.172;2022-12-18T03:39:48;31.73;;;18.47;;
757;SDS011;363;48.764;9.172;2022-12-18T03:42:15;36.83;;;20.43;;
757;SDS011;363;48.764;9.172;2022-12-18T03:45:11;33.58;;;20.30;;
757;SDS011;363;48.764;9.172;2022-12-18T03:48:31;34.22;;;20.50;;
757;SDS011;363;48.764;9.172;2022-12-18T03:50:57;26.48;;;16.58;;
757;SDS011;363;48.764;9.172;2022-12-18T03:53:33;28.77;;;18.35;;
757;SDS011;363;48.764;9.172;2022-12-18T03:56:12;30.52;;;19.52;;
757;SDS011;363;48.764;9.172;2022-12-18T03:58:41;30.90;;;17.73;;
757;SDS011;363;48.764;9.172;2022-12-18T04:01:08;27.88;;;17.92;;
757;SDS011;363;48.764;9.172;2022-12-18T04:03:38;34.50;;;18.85;;
757;SDS011;363;48.764;9.172;2022-12-18T04:06:05;27.40;;;17.20;;
757;SDS011;363;48.764;9.172;2022-12-18T04:08:32;29.77;;;17.10;;
757;SDS011;363;48.764;9.172;2022-12-18T04:10:59;30.27;;;18.17;;
757;SDS011;363;48.764;9.172;2022-12-18T04:13:33;28.33;;;17.55;;
757;SDS011;363;48.764;9.172;2022-12-18T04:16:00;30.77;;;17.48;;
757;SDS011;363;48.764;9.172;2022-12-18T04:18:26;28.90;;;19.25;;
757;SDS011;363;48.764;9.172;2022-12-18T04:20:52;31.47;;;19.30;;
757;SDS011;363;48.764;9.172;2022-12-18T04:23:18;25.40;;;16.87;;
757;SDS011;363;48.764;9.172;2022-12-18T04:25:43;28.23;;;17.87;;
757;SDS011;363;48.764;9.172;2022-12-18T04:28:10;28.35;;;17.45;;
757;SDS011;363;48.764;9.172;2022-12-18T04:30:35;32.47;;;18.17;;
757;SDS011;363;48.764;9.172;2022-12-18T04:33:01;27.33;;;17.67;;
757;SDS011;363;48.764;9.172;2022-12-18T04:35:26;30.30;;;17.90;;
757;SDS011;363;48.764;9.172;2022-12-18T04:37:52;31.27;;;18.80;;
757;SDS011;363;48.764;9.172;2022-12-18T04:40:17;30.87;;;18.83;;
757;SDS011;363;48.764;9.172;2022-12-18T04:42:43;33.40;;;20.47;;
757;SDS011;363;48.764;9.172;2022-12-18T04:45:09;30.67;;;20.47;;
757;SDS011;363;48.764;9.172;2022-12-18T04:47:34;26.97;;;16.40;;
757;SDS011;363;48.764;9.172;2022-12-18T04:50:00;28.13;;;17.87;;
757;SDS011;363;48.764;9.172;2022-12-18T04:52:26;34.20;;;19.90;;
757;SDS011;363;48.764;9.172;2022-12-18T04:54:52;26.17;;;15.95;;
757;SDS011;363;48.764;9.172;2022-12-18T04:57:17;29.33;;;17.23;;
757;SDS011;363;48.764;9.172;2022-12-18T04:59:43;29.67;;;18.37;;
757;SDS011;363;48.764;9.172;2022-12-18T05:02:09;30.42;;;18.63;;
757;SDS011;363;48.764;9.172;2022-12-18T05:04:35;27.10;;;18.13;;
757;SDS011;363;48.764;9.172;2022-12-18T05:07:01;29.50;;;17.50;;
757;SDS011;363;48.764;9.172;2022-12-18T05:09:26;30.73;;;18.60;;
757;SDS011;363;48.764;9.172;2022-12-18T05:11:52;28.95;;;18.42;;
757;SDS011;363;48.764;9.172;2022-12-18T05:14:18;29.50;;;17.90;;
757;SDS011;363;48.764;9.172;2022-12-18T05:16:44;33.17;;;18.50;;
757;SDS011;363;48.764;9.172;2022-12-18T05:19:09;31.00;;;19.13;;
757;SDS011;363;48.764;9.172;2022-12-18T05:21:35;27.07;;;16.33;;
757;SDS011;363;48.764;9.172;2022-12-18T05:24:01;31.60;;;18.87;;
757;SDS011;363;48.764;9.172;2022-12-18T05:26:26;25.67;;;16.77;;
757;SDS011;363;48.764;9.172;2022-12-18T05:28:52;27.63;;;18.13;;
757;SDS011;363;48.764;9.172;2022-12-18T05:31:18;32.63;;;17.97;;
757;SDS011;363;48.764;9.172;2022-12-18T05:33:43;27.27;;;18.67;;
757;SDS011;363;48.764;9.172;2022-12-18T05:36:09;25.50;;;18.77;;
757;SDS011;363;48.764;9.172;2022-12-18T05:38:37;27.05;;;16.98;;
757;SDS011;363;48.764;9.172;2022-12-18T05:41:04;28.42;;;18.35;;
757;SDS011;363;48.764;9.172;2022-12-18T05:43:31;29.58;;;15.93;;
757;SDS011;363;48.764;9.172;2022-12-18T05:46:01;29.40;;;18.67;;
757;SDS011;363;48.764;9.172;2022-12-18T05:48:28;27.17;;;17.88;;
757;SDS011;363;48.764;9.172;2022-12-18T05:50:54;28.03;;;16.90;;
757;SDS011;363;48.764;9.172;2022-12-18T05:53:20;27.97;;;17.80;;
757;SDS011;363;48.764;9.172;2022-12-18T05:55:46;30.30;;;19.42;;
757;SDS011;363;48.764;9.172;2022-12-18T05:58:12;33.00;;;19.30;;
757;SDS011;363;48.764;9.172;2022-12-18T06:00:40;30.63;;;17.77;;
757;SDS011;363;48.764;9.172;2022-12-18T06:03:07;30.13;;;17.15;;
757;SDS011;363;48.764;9.172;2022-12-18T06:05:38;25.50;;;16.60;;
757;SDS011;363;48.764;9.172;2022-12-18T06:08:08;30.73;;;17.58;;
757;SDS011;363;48.764;9.172;2022-12-18T06:10:41;29.58;;;18.60;;
757;SDS011;363;48.764;9.172;2022-12-18T06:13:07;39.60;;;20.40;;
757;SDS011;363;48.764;9.172;2022-12-18T06:15:36;29.65;;;18.63;;
757;SDS011;363;48.764;9.172;2022-12-18T06:18:02;31.15;;;16.58;;
757;SDS011;363;48.764;9.172;2022-12-18T06:20:28;24.20;;;17.10;;
757;SDS011;363;48.764;9.172;2022-12-18T06:22:56;28.63;;;18.35;;
757;SDS011;363;48.764;9.172;2022-12-18T06:25:22;25.93;;;17.20;;
757;SDS011;363;48.764;9.172;2022-12-18T06:27:48;37.53;;;19.60;;
757;SDS011;363;48.764;9.172;2022-12-18T06:30:14;31.25;;;17.48;;
757;SDS011;363;48.764;9.172;2022-12-18T06:32:40;27.30;;;16.67;;
757;SDS011;363;48.764;9.172;2022-12-18T06:35:06;29.83;;;18.20;;
757;SDS011;363;48.764;9.172;2022-12-18T06:37:32;33.78;;;18.40;;
757;SDS011;363;48.764;9.172;2022-12-18T06:39:57;27.50;;;15.97;;
757;SDS011;363;48.764;9.172;2022-12-18T06:42:23;32.43;;;18.30;;
757;SDS011;363;48.764;9.172;2022-12-18T06:44:49;29.50;;;17.30;;
757;SDS011;363;48.764;9.172;2022-12-18T06:47:15;33.00;;;16.20;;
757;SDS011;363;48.764;9.172;2022-12-18T06:49:40;28.60;;;16.00;;
757;SDS011;363;48.764;9.172;2022-12-18T06:52:06;32.63;;;16.87;;
757;SDS011;363;48.764;9.172;2022-12-18T06:54:31;27.13;;;15.47;;
757;SDS011;363;48.764;9.172;2022-12-18T06:56:57;28.70;;;18.07;;
757;SDS011;363;48.764;9.172;2022-12-18T06:59:23;25.13;;;16.10;;
757;SDS011;363;48.764;9.172;2022-12-18T07:01:48;26.30;;;16.13;;
757;SDS011;363;48.764;9.172;2022-12-18T07:04:14;36.27;;;18.50;;
757;SDS011;363;48.764;9.172;2022-12-18T07:06:39;27.37;;;16.67;;
757;SDS011;363;48.764;9.172;2022-12-18T07:09:05;31.80;;;18.10;;
757;SDS011;363;48.764;9.172;2022-12-18T07:11:32;24.93;;;15.73;;
757;SDS011;363;48.764;9.172;2022-12-18T07:13:57;33.80;;;16.30;;
757;SDS011;363;48.764;9.172;2022-12-18T07:16:23;27.27;;;17.13;;
757;SDS011;363;48.764;9.172;2022-12-18T07:18:50;25.70;;;15.70;;
757;SDS011;363;48.764;9.172;2022-12-18T07:21:17;28.27;;;16.70;;
757;SDS011;363;48.764;9.172;2022-12-18T07:23:44;31.45;;;18.10;;
757;SDS011;363;48.764;9.172;2022-12-18T07:26:12;25.20;;;16.52;;
757;SDS011;363;48.764;9.172;2022-12-18T07:28:39;30.50;;;17.85;;
757;SDS011;363;48.764;9.172;2022-12-18T07:31:06;34.03;;;19.00;;
757;SDS011;363;48.764;9.172;2022-12-18T07:33:36;24.92;;;16.30;;
757;SDS011;363;48.764;9.172;2022-12-18T07:36:03;26.45;;;17.73;;
757;SDS011;363;48.764;9.172;2022-12-18T07:38:31;26.92;;;16.95;;
757;SDS011;363;48.764;9.172;2022-12-18T07:41:15;24.67;;;16.30;;
757;SDS011;363;48.764;9.172;2022-12-18T07:43:41;33.90;;;18.55;;
757;SDS011;363;48.764;9.172;2022-12-18T07:46:07;29.50;;;16.27;;
757;SDS011;363;48.764;9.172;2022-12-18T07:48:33;30.75;;;16.02;;
757;SDS011;363;48.764;9.172;2022-12-18T07:51:00;27.27;;;15.85;;
757;SDS011;363;48.764;9.172;2022-12-18T07:53:29;29.45;;;16.67;;
757;SDS011;363;48.764;9.172;2022-12-18T07:56:00;29.38;;;16.95;;
757;SDS011;363;48.764;9.172;2022-12-18T07:58:27;31.52;;;16.55;;
757;SDS011;363;48.764;9.172;2022-12-18T08:00:54;26.63;;;18.27;;
757;SDS011;363;48.764;9.172;2022-12-18T08:03:19;28.03;;;16.63;;
757;SDS011;363;48.764;9.172;2022-12-18T08:05:45;29.73;;;16.87;;
757;SDS011;363;48.764;9.172;2022-12-18T08:08:10;26.43;;;17.23;;
757;SDS011;363;48.764;9.172;2022-12-18T08:10:37;30.80;;;18.13;;
757;SDS011;363;48.764;9.172;2022-12-18T08:13:03;30.45;;;17.02;;
757;SDS011;363;48.764;9.172;2022-12-18T08:15:28;30.60;;;19.33;;
757;SDS011;363;48.764;9.172;2022-12-18T08:17:57;39.20;;;18.20;;
757;SDS011;363;48.764;9.172;2022-12-18T08:20:22;28.00;;;17.52;;
757;SDS011;363;48.764;9.172;2022-12-18T08:22:48;29.47;;;18.70;;
757;SDS011;363;48.764;9.172;2022-12-18T08:25:14;30.27;;;16.07;;
757;SDS011;363;48.764;9.172;2022-12-18T08:27:39;27.40;;;17.60;;
757;SDS011;363;48.764;9.172;2022-12-18T08:30:05;33.67;;;19.50;;
757;SDS011;363;48.764;9.172;2022-12-18T08:32:31;27.45;;;17.30;;
757;SDS011;363;48.764;9.172;2022-12-18T08:34:58;27.23;;;17.58;;
757;SDS011;363;48.764;9.172;2022-12-18T08:37:23;29.63;;;16.63;;
757;SDS011;363;48.764;9.172;2022-12-18T08:39:49;28.10;;;17.80;;
757;SDS011;363;48.764;9.172;2022-12-18T08:42:15;31.67;;;20.23;;
757;SDS011;363;48.764;9.172;2022-12-18T08:44:59;30.98;;;17.52;;
757;SDS011;363;48.764;9.172;2022-12-18T08:47:25;33.67;;;18.37;;
757;SDS011;363;48.764;9.172;2022-12-18T08:49:51;34.50;;;19.90;;
757;SDS011;363;48.764;9.172;2022-12-18T08:52:16;31.83;;;21.37;;
757;SDS011;363;48.764;9.172;2022-12-18T08:54:42;29.90;;;20.10;;
757;SDS011;363;48.764;9.172;2022-12-18T08:57:08;34.30;;;19.90;;
757;SDS011;363;48.764;9.172;2022-12-18T08:59:33;34.10;;;22.13;;
757;SDS011;363;48.764;9.172;2022-12-18T09:01:59;31.43;;;20.37;;
757;SDS011;363;48.764;9.172;2022-12-18T09:04:24;34.50;;;18.70;;
757;SDS011;363;48.764;9.172;2022-12-18T09:06:50;26.87;;;18.80;;
757;SDS011;363;48.764;9.172;2022-12-18T09:09:15;27.70;;;18.67;;
757;SDS011;363;48.764;9.172;2022-12-18T09:11:41;32.83;;;19.33;;
757;SDS011;363;48.764;9.172;2022-12-18T09:14:08;30.90;;;19.87;;
757;SDS011;363;48.764;9.172;2022-12-18T09:16:34;35.17;;;19.05;;
757;SDS011;363;48.764;9.172;2022-12-18T09:19:00;32.10;;;19.37;;
757;SDS011;363;48.764;9.172;2022-12-18T09:21:30;29.20;;;19.45;;
757;SDS011;363;48.764;9.172;2022-12-18T09:23:58;34.30;;;19.13;;
757;SDS011;363;48.764;9.172;2022-12-18T09:26:24;28.90;;;18.93;;
757;SDS011;363;48.764;9.172;2022-12-18T09:28:51;30.25;;;17.98;;
757;SDS011;363;48.764;9.172;2022-12-18T09:31:17;31.03;;;20.30;;
757;SDS011;363;48.764;9.172;2022-12-18T09:33:44;29.90;;;19.67;;
757;SDS011;363;48.764;9.172;2022-12-18T09:36:11;31.53;;;18.73;;
757;SDS011;363;48.764;9.172;2022-12-18T09:38:38;30.73;;;19.25;;
757;SDS011;363;48.764;9.172;2022-12-18T09:41:05;27.50;;;18.27;;
757;SDS011;363;48.764;9.172;2022-12-18T09:43:41;30.83;;;19.48;;
757;SDS011;363;48.764;9.172;2022-12-18T09:46:20;31.67;;;19.83;;
757;SDS011;363;48.764;9.172;2022-12-18T09:49:00;28.08;;;18.40;;
757;SDS011;363;48.764;9.172;2022-12-18T09:51:36;30.05;;;20.05;;
757;SDS011;363;48.764;9.172;2022-12-18T09:54:14;31.23;;;19.38;;
757;SDS011;363;48.764;9.172;2022-12-18T09:56:45;32.08;;;20.33;;
757;SDS011;363;48.764;9.172;2022-12-18T09:59:24;30.95;;;19.15;;
757;SDS011;363;48.764;9.172;2022-12-18T10:01:56;30.42;;;20.35;;
757;SDS011;363;48.764;9.172;2022-12-18T10:04:22;32.95;;;21.25;;
757;SDS011;363;48.764;9.172;2022-12-18T10:06:51;28.52;;;19.77;;
757;SDS011;363;48.764;9.172;2022-12-18T10:09:31;29.27;;;19.38;;
757;SDS011;363;48.764;9.172;2022-12-18T10:12:20;29.00;;;17.75;;
757;SDS011;363;48.764;9.172;2022-12-18T10:14:57;29.35;;;19.88;;
757;SDS011;363;48.764;9.172;2022-12-18T10:20:24;31.45;;;19.20;;
757;SDS011;363;48.764;9.172;2022-12-18T10:28:26;25.73;;;16.38;;
757;SDS011;363;48.764;9.172;2022-12-18T10:30:54;31.80;;;19.10;;
757;SDS011;363;48.764;9.172;2022-12-18T10:33:21;22.90;;;15.40;;
757;SDS011;363;48.764;9.172;2022-12-18T10:35:52;25.23;;;15.68;;
757;SDS011;363;48.764;9.172;2022-12-18T10:43:15;26.80;;;17.55;;
757;SDS011;363;48.764;9.172;2022-12-18T10:45:44;21.85;;;15.63;;
757;SDS011;363;48.764;9.172;2022-12-18T10:51:19;26.98;;;17.85;;
757;SDS011;363;48.764;9.172;2022-12-18T10:54:05;26.63;;;19.20;;
757;SDS011;363;48.764;9.172;2022-12-18T10:56:32;25.20;;;18.20;;
757;SDS011;363;48.764;9.172;2022-12-18T10:59:06;28.88;;;18.88;;
757;SDS011;363;48.764;9.172;2022-12-18T11:01:47;28.30;;;18.15;;
757;SDS011;363;48.764;9.172;2022-12-18T11:06:53;30.08;;;16.60;;
757;SDS011;363;48.764;9.172;2022-12-18T11:09:34;29.02;;;17.02;;
757;SDS011;363;48.764;9.172;2022-12-18T11:12:03;26.92;;;16.85;;
757;SDS011;363;48.764;9.172;2022-12-18T11:19:54;29.02;;;17.95;;
757;SDS011;363;48.764;9.172;2022-12-18T11:22:24;23.98;;;16.33;;
757;SDS011;363;48.764;9.172;2022-12-18T11:25:34;32.15;;;20.63;;
757;SDS011;363;48.764;9.172;2022-12-18T11:27:41;28.77;;;19.15;;
757;SDS011;363;48.764;9.172;2022-12-18T11:30:35;29.00;;;18.10;;
757;SDS011;363;48.764;9.172;2022-12-18T11:33:12;29.35;;;20.70;;
757;SDS011;363;48.764;9.172;2022-12-18T11:35:55;29.55;;;18.65;;
757;SDS011;363;48.764;9.172;2022-12-18T11:38:32;31.38;;;19.60;;
757;SDS011;363;48.764;9.172;2022-12-18T11:41:19;26.67;;;19.42;;
757;SDS011;363;48.764;9.172;2022-12-18T11:44:28;27.40;;;17.60;;
757;SDS011;363;48.764;9.172;2022-12-18T11:47:04;24.70;;;15.55;;
757;SDS011;363;48.764;9.172;2022-12-18T11:49:47;26.10;;;16.58;;
757;SDS011;363;48.764;9.172;2022-12-18T11:52:24;24.83;;;15.98;;
757;SDS011;363;48.764;9.172;2022-12-18T11:55:04;25.55;;;17.00;;
757;SDS011;363;48.764;9.172;2022-12-18T12:00:19;26.83;;;15.98;;
757;SDS011;363;48.764;9.172;2022-12-18T12:03:06;22.73;;;15.02;;
757;SDS011;363;48.764;9.172;2022-12-18T12:05:56;25.17;;;15.52;;
757;SDS011;363;48.764;9.172;2022-12-18T12:13:41;25.65;;;16.13;;
757;SDS011;363;48.764;9.172;2022-12-18T12:17:34;25.60;;;15.38;;
757;SDS011;363;48.764;9.172;2022-12-18T12:20:17;26.77;;;15.40;;
757;SDS011;363;48.764;9.172;2022-12-18T12:26:07;26.35;;;15.80;;
757;SDS011;363;48.764;9.172;2022-12-18T12:29:13;26.33;;;16.42;;
757;SDS011;363;48.764;9.172;2022-12-18T12:32:00;26.10;;;15.90;;
757;SDS011;363;48.764;9.172;2022-12-18T12:34:44;26.20;;;15.07;;
757;SDS011;363;48.764;9.172;2022-12-18T12:40:27;25.33;;;16.30;;
757;SDS011;363;48.764;9.172;2022-12-18T12:42:56;29.55;;;16.08;;
757;SDS011;363;48.764;9.172;2022-12-18T12:45:42;27.83;;;16.52;;
757;SDS011;363;48.764;9.172;2022-12-18T12:51:04;28.85;;;17.48;;
757;SDS011;363;48.764;9.172;2022-12-18T12:53:40;24.70;;;14.48;;
757;SDS011;363;48.764;9.172;2022-12-18T12:56:06;23.45;;;16.90;;
757;SDS011;363;48.764;9.172;2022-12-18T13:12:58;26.85;;;16.35;;
757;SDS011;363;48.764;9.172;2022-12-18T13:15:45;28.33;;;17.15;;
757;SDS011;363;48.764;9.172;2022-12-18T13:18:13;26.60;;;17.52;;
757;SDS011;363;48.764;9.172;2022-12-18T13:25:54;31.05;;;18.25;;
757;SDS011;363;48.764;9.172;2022-12-18T13:28:21;26.83;;;17.05;;
757;SDS011;363;48.764;9.172;2022-12-18T13:30:56;30.67;;;17.27;;
757;SDS011;363;48.764;9.172;2022-12-18T13:38:20;26.15;;;17.92;;
757;SDS011;363;48.764;9.172;2022-12-18T13:46:16;25.48;;;17.67;;
757;SDS011;363;48.764;9.172;2022-12-18T13:48:49;28.10;;;16.70;;
757;SDS011;363;48.764;9.172;2022-12-18T13:51:22;30.35;;;17.95;;
757;SDS011;363;48.764;9.172;2022-12-18T13:56:46;27.10;;;16.20;;
757;SDS011;363;48.764;9.172;2022-12-18T13:59:18;25.75;;;16.48;;
757;SDS011;363;48.764;9.172;2022-12-18T14:01:51;30.80;;;17.83;;
757;SDS011;363;48.764;9.172;2022-12-18T14:04:25;24.70;;;15.77;;
757;SDS011;363;48.764;9.172;2022-12-18T14:06:52;27.85;;;17.80;;
757;SDS011;363;48.764;9.172;2022-12-18T14:09:52;29.00;;;18.25;;
757;SDS011;363;48.764;9.172;2022-12-18T14:12:30;24.77;;;16.60;;
757;SDS011;363;48.764;9.172;2022-12-18T14:17:51;33.65;;;19.67;;
757;SDS011;363;48.764;9.172;2022-12-18T14:20:19;30.00;;;17.67;;
757;SDS011;363;48.764;9.172;2022-12-18T14:22:46;32.00;;;18.83;;
757;SDS011;363;48.764;9.172;2022-12-18T14:25:30;32.85;;;18.80;;
757;SDS011;363;48.764;9.172;2022-12-18T14:30:37;27.05;;;17.50;;
757;SDS011;363;48.764;9.172;2022-12-18T14:35:37;29.33;;;19.52;;
757;SDS011;363;48.764;9.172;2022-12-18T14:38:39;27.05;;;18.73;;
757;SDS011;363;48.764;9.172;2022-12-18T14:43:34;28.77;;;17.95;;
757;SDS011;363;48.764;9.172;2022-12-18T14:46:02;29.52;;;19.58;;
757;SDS011;363;48.764;9.172;2022-12-18T14:51:17;35.30;;;18.85;;
757;SDS011;363;48.764;9.172;2022-12-18T14:53:46;30.52;;;18.10;;
757;SDS011;363;48.764;9.172;2022-12-18T14:56:17;29.30;;;17.30;;
757;SDS011;363;48.764;9.172;2022-12-18T14:58:49;32.65;;;21.27;;
757;SDS011;363;48.764;9.172;2022-12-18T15:01:27;36.13;;;20.30;;
757;SDS011;363;48.764;9.172;2022-12-18T15:03:55;33.00;;;19.40;;
757;SDS011;363;48.764;9.172;2022-12-18T15:08:53;29.33;;;18.45;;
757;SDS011;363;48.764;9.172;2022-12-18T15:11:24;26.52;;;18.60;;
757;SDS011;363;48.764;9.172;2022-12-18T15:13:53;31.35;;;19.98;;
757;SDS011;363;48.764;9.172;2022-12-18T15:16:19;34.20;;;19.70;;
757;SDS011;363;48.764;9.172;2022-12-18T15:18:44;31.07;;;18.90;;
757;SDS011;363;48.764;9.172;2022-12-18T15:21:15;36.70;;;20.70;;
757;SDS011;363;48.764;9.172;2022-12-18T15:26:09;33.70;;;19.17;;
757;SDS011;363;48.764;9.172;2022-12-18T15:28:38;32.63;;;19.58;;
757;SDS011;363;48.764;9.172;2022-12-18T15:33:36;31.13;;;20.40;;
757;SDS011;363;48.764;9.172;2022-12-18T15:36:24;33.58;;;19.80;;
757;SDS011;363;48.764;9.172;2022-12-18T15:38:50;29.75;;;19.08;;
757;SDS011;363;48.764;9.172;2022-12-18T15:41:18;32.78;;;19.25;;
757;SDS011;363;48.764;9.172;2022-12-18T15:43:46;32.35;;;19.63;;
757;SDS011;363;48.764;9.172;2022-12-18T15:46:14;31.33;;;20.60;;
757;SDS011;363;48.764;9.172;2022-12-18T15:48:44;36.05;;;22.13;;
757;SDS011;363;48.764;9.172;2022-12-18T15:53:54;37.17;;;23.33;;
757;SDS011;363;48.764;9.172;2022-12-18T15:56:21;38.58;;;23.23;;
757;SDS011;363;48.764;9.172;2022-12-18T15:59:39;44.42;;;23.40;;
757;SDS011;363;48.764;9.172;2022-12-18T16:01:58;38.30;;;21.00;;
757;SDS011;363;48.764;9.172;2022-12-18T16:04:23;29.17;;;20.30;;
757;SDS011;363;48.764;9.172;2022-12-18T16:06:50;31.42;;;19.65;;
757;SDS011;363;48.764;9.172;2022-12-18T16:09:16;35.97;;;22.95;;
757;SDS011;363;48.764;9.172;2022-12-18T16:11:42;38.20;;;21.20;;
757;SDS011;363;48.764;9.172;2022-12-18T16:16:53;29.75;;;20.30;;
757;SDS011;363;48.764;9.172;2022-12-18T16:19:26;37.22;;;20.65;;
757;SDS011;363;48.764;9.172;2022-12-18T16:21:53;35.90;;;20.75;;
757;SDS011;363;48.764;9.172;2022-12-18T16:24:29;38.38;;;21.38;;
757;SDS011;363;48.764;9.172;2022-12-18T16:26:57;39.42;;;23.70;;
757;SDS011;363;48.764;9.172;2022-12-18T16:29:24;40.35;;;22.88;;
757;SDS011;363;48.764;9.172;2022-12-18T16:31:52;39.22;;;23.70;;
757;SDS011;363;48.764;9.172;2022-12-18T16:34:23;44.25;;;25.13;;
757;SDS011;363;48.764;9.172;2022-12-18T16:37:02;36.58;;;19.90;;
757;SDS011;363;48.764;9.172;2022-12-18T16:39:29;40.67;;;23.50;;
757;SDS011;363;48.764;9.172;2022-12-18T16:41:55;34.95;;;21.48;;
757;SDS011;363;48.764;9.172;2022-12-18T16:44:21;42.35;;;24.67;;
757;SDS011;363;48.764;9.172;2022-12-18T16:46:47;40.40;;;22.23;;
757;SDS011;363;48.764;9.172;2022-12-18T16:49:16;35.80;;;21.20;;
757;SDS011;363;48.764;9.172;2022-12-18T16:51:43;36.28;;;21.73;;
757;SDS011;363;48.764;9.172;2022-12-18T16:54:10;45.00;;;23.73;;
757;SDS011;363;48.764;9.172;2022-12-18T16:56:36;36.90;;;23.20;;
757;SDS011;363;48.764;9.172;2022-12-18T16:59:02;37.43;;;22.70;;
757;SDS011;363;48.764;9.172;2022-12-18T17:01:29;37.60;;;24.02;;
757;SDS011;363;48.764;9.172;2022-12-18T17:03:57;43.90;;;25.63;;
757;SDS011;363;48.764;9.172;2022-12-18T17:06:28;39.35;;;23.83;;
757;SDS011;363;48.764;9.172;2022-12-18T17:08:59;40.83;;;23.63;;
757;SDS011;363;48.764;9.172;2022-12-18T17:11:28;41.80;;;23.85;;
757;SDS011;363;48.764;9.172;2022-12-18T17:13:55;38.42;;;24.20;;
757;SDS011;363;48.764;9.172;2022-12-18T17:16:21;37.70;;;23.95;;
757;SDS011;363;48.764;9.172;2022-12-18T17:18:47;35.50;;;23.13;;
757;SDS011;363;48.764;9.172;2022-12-18T17:21:13;40.60;;;23.83;;
757;SDS011;363;48.764;9.172;2022-12-18T17:23:42;40.60;;;22.55;;
757;SDS011;363;48.764;9.172;2022-12-18T17:26:09;37.28;;;24.40;;